China Lake Naws (Armitage Field) Airport
KNID : now visible

Airfield :











YOU CAN JOIN US ON...

 
LOGIN :

Register | Disclaimer

   EN    FR    IT 

 









Legend :    VFR   Marginal VFR   IFR   Intensive IFR   Very Intensive IFR
Visi :
Ceiling :
>= 8 km
>= 3000ft
5 to 8 km
1000 to 3000 ft
1500m to 5 km
500 to 1000 ft
800 to 1500m
200 to 500 ft
< 800m
< 200 ft
Symbols :   Thunderstorms  Fog  Heavy snow  Heavy precipitations  Wind > 20 kt






- Airport Elevation : 2283 ft


KNID - China Lake Naws (Armitage Field)

CURRENT METAR :
  • 140556Z 22006KT 10SM BKN250 11/M08 A3002 RMK AO2 SLP161 T01111078 10233 20111 51009

EXPIRED METARs :
  • 140456Z 21008KT 10SM BKN250 13/M07 A3001 RMK AO2 SLP160 T01281072
  • 140356Z 22009KT 10SM BKN250 13/M07 A3000 RMK AO2 SLP158 T01331072

TAF TAF KNID
Valid from the 13 at 23:00 until the 14 at 23:00 UTC


1323/1423 VRB05KT 9999 FEW220 OVC250 QNH2991INS
BECMG 1402/1404 21007KT 9999 BKN250 QNH2996INS WND VRB05KT AFT 1408 T05/1414Z T26/1423Z LAST NO AMDS AFT 1405 NEXT 1415



MET'MAP, your aeronautical weather chart ! - Copyright ORBIFLY December 2007 - Disclaimer

ORBIFLY MET'MAP TEAM :

Programming & Development : Alexandra Zaïnal
Concept & Development : Baudouin d'Aumeries
Co-Development & Prog : Marc-Olivier Méhu
Technical & hardware support : Manuel Goepfert

Contact : metmap@orbifly.com




SOURCES & CREDITS :

   NOAA       Earth
Advisory